Terminal Aerodrome Forecast
Issued by NWS Twin Cities, MN

Home | Current Version | Previous Version | Text Only | Print | Product List | Glossary Off
Versions: 1 2 3 4 5 6 7 8 9 10 11 12 13 14 15 16 17 18 19 20 21

074
FTUS43 KMPX 271720
TAFEAU
TAF
KEAU 271720Z 2718/2818 09007KT P6SM OVC050
     FM272100 16009KT P6SM SCT025 OVC050
     FM280800 14004KT 4SM -SHRA BR SCT007 OVC010
     FM281500 15006KT 6SM -SHRA BR OVC015=

USA.gov is the U.S. government's official web portal to all federal, state and local government web resources and services.